sensor_id;sensor_type;location;lat;lon;timestamp;pressure;altitude;pressure_sealevel;temperature;humidity
54407;BME280;40313;50.308;30.374;2022-09-13T00:00:50;98675.25;;;15.67;100.00
54407;BME280;40313;50.308;30.374;2022-09-13T00:03:17;98676.22;;;15.76;100.00
54407;BME280;40313;50.308;30.374;2022-09-13T00:05:44;98675.09;;;15.69;100.00
54407;BME280;40313;50.308;30.374;2022-09-13T00:08:12;98674.25;;;15.78;100.00
54407;BME280;40313;50.308;30.374;2022-09-13T00:10:41;98676.47;;;15.83;100.00
54407;BME280;40313;50.308;30.374;2022-09-13T00:13:10;98670.41;;;15.82;100.00
54407;BME280;40313;50.308;30.374;2022-09-13T00:15:41;98662.06;;;15.87;100.00
54407;BME280;40313;50.308;30.374;2022-09-13T00:18:08;98666.06;;;15.91;100.00
54407;BME280;40313;50.308;30.374;2022-09-13T00:20:35;98667.03;;;15.90;100.00
54407;BME280;40313;50.308;30.374;2022-09-13T00:23:01;98662.38;;;15.84;100.00
54407;BME280;40313;50.308;30.374;2022-09-13T00:25:29;98664.41;;;15.90;100.00
54407;BME280;40313;50.308;30.374;2022-09-13T00:27:56;98660.22;;;15.97;100.00
54407;BME280;40313;50.308;30.374;2022-09-13T00:30:22;98659.44;;;15.87;100.00
54407;BME280;40313;50.308;30.374;2022-09-13T00:32:49;98667.75;;;15.92;100.00
54407;BME280;40313;50.308;30.374;2022-09-13T00:35:15;98663.16;;;15.94;100.00
54407;BME280;40313;50.308;30.374;2022-09-13T00:37:42;98666.75;;;15.93;100.00
54407;BME280;40313;50.308;30.374;2022-09-13T00:40:09;98664.22;;;16.01;100.00
54407;BME280;40313;50.308;30.374;2022-09-13T00:42:37;98655.66;;;15.99;100.00
54407;BME280;40313;50.308;30.374;2022-09-13T00:45:14;98663.59;;;16.17;100.00
54407;BME280;40313;50.308;30.374;2022-09-13T00:47:45;98660.00;;;16.18;100.00
54407;BME280;40313;50.308;30.374;2022-09-13T00:50:18;98659.19;;;16.18;100.00
54407;BME280;40313;50.308;30.374;2022-09-13T00:52:49;98658.94;;;16.11;100.00
54407;BME280;40313;50.308;30.374;2022-09-13T00:55:22;98658.31;;;16.17;100.00
54407;BME280;40313;50.308;30.374;2022-09-13T00:57:51;98652.69;;;16.12;100.00
54407;BME280;40313;50.308;30.374;2022-09-13T01:00:19;98650.28;;;16.19;100.00
54407;BME280;40313;50.308;30.374;2022-09-13T01:02:48;98652.41;;;16.15;100.00
54407;BME280;40313;50.308;30.374;2022-09-13T01:05:20;98647.28;;;16.14;100.00
54407;BME280;40313;50.308;30.374;2022-09-13T01:07:49;98646.16;;;16.16;100.00
54407;BME280;40313;50.308;30.374;2022-09-13T01:10:16;98648.81;;;16.16;100.00
54407;BME280;40313;50.308;30.374;2022-09-13T01:12:48;98652.91;;;16.19;100.00
54407;BME280;40313;50.308;30.374;2022-09-13T01:15:19;98643.69;;;16.15;100.00
54407;BME280;40313;50.308;30.374;2022-09-13T01:17:45;98639.75;;;16.19;100.00
54407;BME280;40313;50.308;30.374;2022-09-13T01:20:13;98644.66;;;16.14;100.00
54407;BME280;40313;50.308;30.374;2022-09-13T01:23:04;98644.47;;;16.25;100.00
54407;BME280;40313;50.308;30.374;2022-09-13T01:25:49;98639.03;;;16.27;100.00
54407;BME280;40313;50.308;30.374;2022-09-13T01:28:47;98642.59;;;16.35;100.00
54407;BME280;40313;50.308;30.374;2022-09-13T01:31:20;98639.81;;;16.37;100.00
54407;BME280;40313;50.308;30.374;2022-09-13T01:33:57;98634.72;;;16.08;100.00
54407;BME280;40313;50.308;30.374;2022-09-13T01:36:38;98631.50;;;16.14;100.00
54407;BME280;40313;50.308;30.374;2022-09-13T01:39:13;98639.53;;;16.12;100.00
54407;BME280;40313;50.308;30.374;2022-09-13T01:41:49;98630.81;;;16.12;100.00
54407;BME280;40313;50.308;30.374;2022-09-13T01:44:28;98629.53;;;16.16;100.00
54407;BME280;40313;50.308;30.374;2022-09-13T01:47:08;98636.84;;;16.22;100.00
54407;BME280;40313;50.308;30.374;2022-09-13T01:49:46;98623.75;;;16.12;100.00
54407;BME280;40313;50.308;30.374;2022-09-13T01:52:20;98630.91;;;16.20;100.00
54407;BME280;40313;50.308;30.374;2022-09-13T01:54:53;98627.16;;;16.22;100.00
54407;BME280;40313;50.308;30.374;2022-09-13T01:57:27;98625.34;;;16.23;100.00
54407;BME280;40313;50.308;30.374;2022-09-13T01:59:59;98632.66;;;16.29;100.00
54407;BME280;40313;50.308;30.374;2022-09-13T02:02:31;98626.69;;;16.27;100.00
54407;BME280;40313;50.308;30.374;2022-09-13T02:05:03;98630.91;;;16.20;100.00
54407;BME280;40313;50.308;30.374;2022-09-13T02:07:34;98621.75;;;16.24;100.00
54407;BME280;40313;50.308;30.374;2022-09-13T02:10:06;98627.41;;;16.29;100.00
54407;BME280;40313;50.308;30.374;2022-09-13T02:12:36;98624.38;;;16.24;100.00
54407;BME280;40313;50.308;30.374;2022-09-13T02:15:10;98633.38;;;16.21;100.00
54407;BME280;40313;50.308;30.374;2022-09-13T02:17:43;98623.69;;;16.22;100.00
54407;BME280;40313;50.308;30.374;2022-09-13T02:20:15;98624.13;;;16.17;100.00
54407;BME280;40313;50.308;30.374;2022-09-13T02:22:48;98626.22;;;16.14;100.00
54407;BME280;40313;50.308;30.374;2022-09-13T02:25:19;98632.88;;;16.18;100.00
54407;BME280;40313;50.308;30.374;2022-09-13T02:27:51;98628.56;;;16.17;100.00
54407;BME280;40313;50.308;30.374;2022-09-13T02:30:23;98625.94;;;16.17;100.00
54407;BME280;40313;50.308;30.374;2022-09-13T02:32:55;98630.91;;;16.20;100.00
54407;BME280;40313;50.308;30.374;2022-09-13T02:35:26;98629.94;;;16.21;100.00
54407;BME280;40313;50.308;30.374;2022-09-13T02:38:04;98624.88;;;16.10;100.00
54407;BME280;40313;50.308;30.374;2022-09-13T02:40:37;98623.44;;;16.15;100.00
54407;BME280;40313;50.308;30.374;2022-09-13T02:43:09;98622.91;;;16.12;100.00
54407;BME280;40313;50.308;30.374;2022-09-13T02:45:44;98627.66;;;16.08;100.00
54407;BME280;40313;50.308;30.374;2022-09-13T02:48:19;98631.78;;;16.11;100.00
54407;BME280;40313;50.308;30.374;2022-09-13T02:50:58;98623.91;;;16.11;100.00
54407;BME280;40313;50.308;30.374;2022-09-13T02:53:29;98630.44;;;16.06;100.00
54407;BME280;40313;50.308;30.374;2022-09-13T02:56:04;98627.91;;;16.15;100.00
54407;BME280;40313;50.308;30.374;2022-09-13T02:58:44;98623.19;;;16.09;100.00
54407;BME280;40313;50.308;30.374;2022-09-13T03:01:12;98630.47;;;15.97;100.00
54407;BME280;40313;50.308;30.374;2022-09-13T03:03:41;98626.13;;;16.05;100.00
54407;BME280;40313;50.308;30.374;2022-09-13T03:06:08;98622.97;;;16.02;100.00
54407;BME280;40313;50.308;30.374;2022-09-13T03:08:35;98625.84;;;16.09;100.00
54407;BME280;40313;50.308;30.374;2022-09-13T03:11:11;98618.25;;;16.05;100.00
54407;BME280;40313;50.308;30.374;2022-09-13T03:13:50;98630.44;;;16.06;100.00
54407;BME280;40313;50.308;30.374;2022-09-13T03:16:35;98624.38;;;16.24;100.00
54407;BME280;40313;50.308;30.374;2022-09-13T03:19:20;98629.78;;;16.22;100.00
54407;BME280;40313;50.308;30.374;2022-09-13T03:22:03;98623.84;;;16.20;100.00
54407;BME280;40313;50.308;30.374;2022-09-13T03:24:41;98629.53;;;16.16;100.00
54407;BME280;40313;50.308;30.374;2022-09-13T03:27:17;98619.00;;;16.16;100.00
54407;BME280;40313;50.308;30.374;2022-09-13T03:29:52;98622.03;;;16.21;100.00
54407;BME280;40313;50.308;30.374;2022-09-13T03:32:27;98614.81;;;16.23;100.00
54407;BME280;40313;50.308;30.374;2022-09-13T03:35:04;98615.34;;;16.27;100.00
54407;BME280;40313;50.308;30.374;2022-09-13T03:37:35;98613.25;;;16.30;100.00
54407;BME280;40313;50.308;30.374;2022-09-13T03:40:09;98620.72;;;16.35;100.00
54407;BME280;40313;50.308;30.374;2022-09-13T03:42:41;98616.41;;;16.34;100.00
54407;BME280;40313;50.308;30.374;2022-09-13T03:45:11;98621.53;;;16.35;100.00
54407;BME280;40313;50.308;30.374;2022-09-13T03:47:41;98621.94;;;16.40;100.00
54407;BME280;40313;50.308;30.374;2022-09-13T03:50:13;98627.47;;;16.37;100.00
54407;BME280;40313;50.308;30.374;2022-09-13T03:52:43;98629.13;;;16.38;100.00
54407;BME280;40313;50.308;30.374;2022-09-13T03:55:11;98624.41;;;16.42;100.00
54407;BME280;40313;50.308;30.374;2022-09-13T03:57:37;98631.59;;;16.40;100.00
54407;BME280;40313;50.308;30.374;2022-09-13T04:00:05;98629.13;;;16.38;100.00
54407;BME280;40313;50.308;30.374;2022-09-13T04:02:32;98624.56;;;16.40;100.00
54407;BME280;40313;50.308;30.374;2022-09-13T04:04:58;98633.56;;;16.38;100.00
54407;BME280;40313;50.308;30.374;2022-09-13T04:07:27;98631.91;;;16.37;100.00
54407;BME280;40313;50.308;30.374;2022-09-13T04:09:53;98631.09;;;16.36;100.00
54407;BME280;40313;50.308;30.374;2022-09-13T04:12:20;98641.63;;;16.36;100.00
54407;BME280;40313;50.308;30.374;2022-09-13T04:14:47;98638.53;;;16.41;100.00
54407;BME280;40313;50.308;30.374;2022-09-13T04:17:14;98642.44;;;16.37;100.00
54407;BME280;40313;50.308;30.374;2022-09-13T04:19:41;98643.19;;;16.29;100.00
54407;BME280;40313;50.308;30.374;2022-09-13T04:22:08;98643.56;;;16.34;100.00
54407;BME280;40313;50.308;30.374;2022-09-13T04:24:36;98639.97;;;16.35;100.00
54407;BME280;40313;50.308;30.374;2022-09-13T04:27:04;98641.38;;;16.30;100.00
54407;BME280;40313;50.308;30.374;2022-09-13T04:29:32;98647.53;;;16.20;100.00
54407;BME280;40313;50.308;30.374;2022-09-13T04:31:59;98638.66;;;16.21;100.00
54407;BME280;40313;50.308;30.374;2022-09-13T04:34:26;98644.75;;;16.22;100.00
54407;BME280;40313;50.308;30.374;2022-09-13T04:36:54;98649.16;;;16.21;100.00
54407;BME280;40313;50.308;30.374;2022-09-13T04:39:21;98653.31;;;16.24;100.00
54407;BME280;40313;50.308;30.374;2022-09-13T04:41:50;98655.50;;;16.29;100.00
54407;BME280;40313;50.308;30.374;2022-09-13T04:44:18;98653.03;;;16.27;100.00
54407;BME280;40313;50.308;30.374;2022-09-13T04:46:46;98648.88;;;16.24;100.00
54407;BME280;40313;50.308;30.374;2022-09-13T04:49:14;98657.06;;;16.21;100.00
54407;BME280;40313;50.308;30.374;2022-09-13T04:51:41;98659.69;;;16.21;100.00
54407;BME280;40313;50.308;30.374;2022-09-13T04:54:08;98651.13;;;16.19;100.00
54407;BME280;40313;50.308;30.374;2022-09-13T04:56:35;98656.53;;;16.18;100.00
54407;BME280;40313;50.308;30.374;2022-09-13T04:59:04;98656.91;;;16.23;100.00
54407;BME280;40313;50.308;30.374;2022-09-13T05:01:31;98650.16;;;16.20;100.00
54407;BME280;40313;50.308;30.374;2022-09-13T05:03:58;98645.41;;;16.24;100.00
54407;BME280;40313;50.308;30.374;2022-09-13T05:06:25;98655.56;;;16.19;100.00
54407;BME280;40313;50.308;30.374;2022-09-13T05:08:53;98648.94;;;16.15;100.00
54407;BME280;40313;50.308;30.374;2022-09-13T05:11:21;98648.41;;;16.11;100.00
54407;BME280;40313;50.308;30.374;2022-09-13T05:13:49;98655.78;;;16.08;100.00
54407;BME280;40313;50.308;30.374;2022-09-13T05:16:21;98663.50;;;16.09;100.00
54407;BME280;40313;50.308;30.374;2022-09-13T05:18:49;98654.22;;;16.15;100.00
54407;BME280;40313;50.308;30.374;2022-09-13T05:21:16;98668.13;;;15.97;100.00
54407;BME280;40313;50.308;30.374;2022-09-13T05:23:43;98657.03;;;16.03;100.00
54407;BME280;40313;50.308;30.374;2022-09-13T05:26:10;98659.47;;;16.15;100.00
54407;BME280;40313;50.308;30.374;2022-09-13T05:28:36;98662.53;;;16.10;100.00
54407;BME280;40313;50.308;30.374;2022-09-13T05:31:05;98669.00;;;16.16;100.00
54407;BME280;40313;50.308;30.374;2022-09-13T05:33:35;98669.84;;;16.16;100.00
54407;BME280;40313;50.308;30.374;2022-09-13T05:36:02;98671.75;;;16.24;100.00
54407;BME280;40313;50.308;30.374;2022-09-13T05:38:29;98674.97;;;16.18;100.00
54407;BME280;40313;50.308;30.374;2022-09-13T05:40:57;98677.50;;;16.10;100.00
54407;BME280;40313;50.308;30.374;2022-09-13T05:43:23;98679.47;;;15.98;100.00
54407;BME280;40313;50.308;30.374;2022-09-13T05:45:50;98679.34;;;15.99;100.00
54407;BME280;40313;50.308;30.374;2022-09-13T05:48:17;98679.91;;;15.93;100.00
54407;BME280;40313;50.308;30.374;2022-09-13T05:50:45;98676.00;;;15.97;100.00
54407;BME280;40313;50.308;30.374;2022-09-13T05:53:11;98685.28;;;16.01;100.00
54407;BME280;40313;50.308;30.374;2022-09-13T05:55:38;98685.16;;;15.93;100.00
54407;BME280;40313;50.308;30.374;2022-09-13T05:58:04;98687.53;;;15.96;100.00
54407;BME280;40313;50.308;30.374;2022-09-13T06:00:31;98688.34;;;15.97;100.00
54407;BME280;40313;50.308;30.374;2022-09-13T06:02:57;98692.78;;;15.96;100.00
54407;BME280;40313;50.308;30.374;2022-09-13T06:05:24;98702.22;;;15.89;100.00
54407;BME280;40313;50.308;30.374;2022-09-13T06:07:52;98695.41;;;15.96;100.00
54407;BME280;40313;50.308;30.374;2022-09-13T06:10:19;98698.72;;;15.98;100.00
54407;BME280;40313;50.308;30.374;2022-09-13T06:12:46;98707.44;;;15.99;100.00
54407;BME280;40313;50.308;30.374;2022-09-13T06:15:15;98705.75;;;16.08;100.00
54407;BME280;40313;50.308;30.374;2022-09-13T06:17:42;98706.72;;;16.06;100.00
54407;BME280;40313;50.308;30.374;2022-09-13T06:20:09;98702.69;;;16.12;100.00
54407;BME280;40313;50.308;30.374;2022-09-13T06:22:35;98707.00;;;16.03;100.00
54407;BME280;40313;50.308;30.374;2022-09-13T06:25:04;98716.66;;;16.13;100.00
54407;BME280;40313;50.308;30.374;2022-09-13T06:27:31;98713.34;;;16.11;100.00
54407;BME280;40313;50.308;30.374;2022-09-13T06:29:57;98714.44;;;16.18;100.00
54407;BME280;40313;50.308;30.374;2022-09-13T06:32:26;98712.03;;;16.24;100.00
54407;BME280;40313;50.308;30.374;2022-09-13T06:34:53;98712.69;;;16.36;100.00
54407;BME280;40313;50.308;30.374;2022-09-13T06:37:19;98724.13;;;16.45;100.00
54407;BME280;40313;50.308;30.374;2022-09-13T06:39:46;98720.88;;;16.33;100.00
54407;BME280;40313;50.308;30.374;2022-09-13T06:42:14;98728.13;;;16.21;100.00
54407;BME280;40313;50.308;30.374;2022-09-13T06:44:40;98722.88;;;16.12;100.00
54407;BME280;40313;50.308;30.374;2022-09-13T06:47:07;98728.16;;;16.12;100.00
54407;BME280;40313;50.308;30.374;2022-09-13T06:49:34;98730.22;;;16.18;100.00
54407;BME280;40313;50.308;30.374;2022-09-13T06:52:01;98727.31;;;16.11;100.00
54407;BME280;40313;50.308;30.374;2022-09-13T06:54:27;98728.41;;;16.18;100.00
54407;BME280;40313;50.308;30.374;2022-09-13T06:56:54;98729.53;;;16.16;100.00
54407;BME280;40313;50.308;30.374;2022-09-13T06:59:22;98724.19;;;15.98;100.00
54407;BME280;40313;50.308;30.374;2022-09-13T07:01:49;98733.03;;;16.06;100.00
54407;BME280;40313;50.308;30.374;2022-09-13T07:04:16;98729.31;;;15.99;100.00
54407;BME280;40313;50.308;30.374;2022-09-13T07:06:45;98737.88;;;16.01;100.00
54407;BME280;40313;50.308;30.374;2022-09-13T07:09:14;98737.34;;;15.98;100.00
54407;BME280;40313;50.308;30.374;2022-09-13T07:11:41;98742.63;;;15.98;100.00
54407;BME280;40313;50.308;30.374;2022-09-13T07:14:12;98748.25;;;16.03;100.00
54407;BME280;40313;50.308;30.374;2022-09-13T07:16:43;98746.66;;;15.92;100.00
54407;BME280;40313;50.308;30.374;2022-09-13T07:19:12;98761.47;;;15.83;100.00
54407;BME280;40313;50.308;30.374;2022-09-13T07:21:39;98756.47;;;15.80;100.00
54407;BME280;40313;50.308;30.374;2022-09-13T07:24:06;98752.44;;;15.96;100.00
54407;BME280;40313;50.308;30.374;2022-09-13T07:26:33;98750.38;;;15.89;100.00
54407;BME280;40313;50.308;30.374;2022-09-13T07:29:01;98746.78;;;15.91;100.00
54407;BME280;40313;50.308;30.374;2022-09-13T07:31:29;98749.50;;;15.99;100.00
54407;BME280;40313;50.308;30.374;2022-09-13T07:33:59;98744.69;;;15.94;100.00
54407;BME280;40313;50.308;30.374;2022-09-13T07:36:27;98744.31;;;15.89;100.00
54407;BME280;40313;50.308;30.374;2022-09-13T07:38:54;98747.03;;;15.97;100.00
54407;BME280;40313;50.308;30.374;2022-09-13T07:41:22;98748.97;;;16.05;100.00
54407;BME280;40313;50.308;30.374;2022-09-13T07:43:49;98749.66;;;15.97;100.00
54407;BME280;40313;50.308;30.374;2022-09-13T07:46:18;98750.22;;;16.01;100.00
54407;BME280;40313;50.308;30.374;2022-09-13T07:48:46;98748.41;;;16.01;100.00
54407;BME280;40313;50.308;30.374;2022-09-13T07:51:15;98756.84;;;16.05;100.00
54407;BME280;40313;50.308;30.374;2022-09-13T07:53:44;98750.38;;;15.99;100.00
54407;BME280;40313;50.308;30.374;2022-09-13T07:56:12;98755.00;;;16.15;100.00
54407;BME280;40313;50.308;30.374;2022-09-13T07:58:41;98752.38;;;16.15;100.00
54407;BME280;40313;50.308;30.374;2022-09-13T08:01:10;98751.66;;;16.23;100.00
54407;BME280;40313;50.308;30.374;2022-09-13T08:03:38;98748.94;;;16.15;100.00
54407;BME280;40313;50.308;30.374;2022-09-13T08:06:06;98754.44;;;16.21;100.00
54407;BME280;40313;50.308;30.374;2022-09-13T08:08:35;98744.59;;;16.23;100.00
54407;BME280;40313;50.308;30.374;2022-09-13T08:11:03;98737.16;;;16.47;100.00
54407;BME280;40313;50.308;30.374;2022-09-13T08:13:30;98736.06;;;16.67;100.00
54407;BME280;40313;50.308;30.374;2022-09-13T08:16:00;98729.63;;;16.80;100.00
54407;BME280;40313;50.308;30.374;2022-09-13T08:18:27;98730.97;;;16.84;100.00
54407;BME280;40313;50.308;30.374;2022-09-13T08:20:55;98739.84;;;17.10;100.00
54407;BME280;40313;50.308;30.374;2022-09-13T08:23:21;98723.66;;;17.23;100.00
54407;BME280;40313;50.308;30.374;2022-09-13T08:25:49;98725.06;;;17.18;100.00
54407;BME280;40313;50.308;30.374;2022-09-13T08:28:17;98726.16;;;17.33;100.00
54407;BME280;40313;50.308;30.374;2022-09-13T08:30:46;98723.91;;;17.56;100.00
54407;BME280;40313;50.308;30.374;2022-09-13T08:33:14;98722.75;;;17.59;100.00
54407;BME280;40313;50.308;30.374;2022-09-13T08:35:48;98733.34;;;17.67;100.00
54407;BME280;40313;50.308;30.374;2022-09-13T08:38:15;98719.44;;;17.57;100.00
54407;BME280;40313;50.308;30.374;2022-09-13T08:40:44;98721.44;;;17.37;100.00
54407;BME280;40313;50.308;30.374;2022-09-13T08:43:19;98742.09;;;17.05;100.00
54407;BME280;40313;50.308;30.374;2022-09-13T08:45:49;98735.47;;;17.01;100.00
54407;BME280;40313;50.308;30.374;2022-09-13T08:48:20;98737.34;;;17.09;100.00
54407;BME280;40313;50.308;30.374;2022-09-13T08:50:51;98724.16;;;16.91;100.00
54407;BME280;40313;50.308;30.374;2022-09-13T08:53:21;98724.75;;;16.85;100.00
54407;BME280;40313;50.308;30.374;2022-09-13T08:55:57;98727.78;;;16.90;100.00
54407;BME280;40313;50.308;30.374;2022-09-13T08:58:39;98724.31;;;16.89;100.00
54407;BME280;40313;50.308;30.374;2022-09-13T09:01:18;98724.47;;;16.88;100.00
54407;BME280;40313;50.308;30.374;2022-09-13T09:03:53;98726.59;;;16.74;100.00
54407;BME280;40313;50.308;30.374;2022-09-13T09:06:22;98721.84;;;16.88;100.00
54407;BME280;40313;50.308;30.374;2022-09-13T09:08:50;98725.97;;;16.90;100.00
54407;BME280;40313;50.308;30.374;2022-09-13T09:11:26;98732.50;;;17.04;100.00
54407;BME280;40313;50.308;30.374;2022-09-13T09:14:00;98730.13;;;17.11;100.00
54407;BME280;40313;50.308;30.374;2022-09-13T09:16:33;98729.63;;;17.52;100.00
54407;BME280;40313;50.308;30.374;2022-09-13T09:19:10;98723.09;;;17.82;100.00
54407;BME280;40313;50.308;30.374;2022-09-13T09:21:39;98725.06;;;18.06;100.00
54407;BME280;40313;50.308;30.374;2022-09-13T09:24:10;98729.78;;;18.29;100.00
54407;BME280;40313;50.308;30.374;2022-09-13T09:26:41;98713.69;;;18.48;100.00
54407;BME280;40313;50.308;30.374;2022-09-13T09:29:16;98717.41;;;18.29;100.00
54407;BME280;40313;50.308;30.374;2022-09-13T09:31:47;98710.84;;;18.34;100.00
54407;BME280;40313;50.308;30.374;2022-09-13T09:34:21;98717.06;;;18.24;100.00
54407;BME280;40313;50.308;30.374;2022-09-13T09:36:57;98716.84;;;18.09;100.00
54407;BME280;40313;50.308;30.374;2022-09-13T09:39:26;98715.50;;;18.05;100.00
54407;BME280;40313;50.308;30.374;2022-09-13T09:41:57;98722.22;;;18.00;100.00
54407;BME280;40313;50.308;30.374;2022-09-13T09:44:26;98719.91;;;17.78;100.00
54407;BME280;40313;50.308;30.374;2022-09-13T09:46:58;98719.84;;;17.70;100.00
54407;BME280;40313;50.308;30.374;2022-09-13T09:49:33;98717.75;;;17.48;100.00
54407;BME280;40313;50.308;30.374;2022-09-13T09:52:29;98719.75;;;17.54;100.00
54407;BME280;40313;50.308;30.374;2022-09-13T09:55:06;98729.47;;;17.53;100.00
54407;BME280;40313;50.308;30.374;2022-09-13T09:57:58;98729.25;;;17.47;100.00
54407;BME280;40313;50.308;30.374;2022-09-13T10:00:55;98724.72;;;17.57;100.00
54407;BME280;40313;50.308;30.374;2022-09-13T10:03:39;98730.78;;;17.31;100.00
54407;BME280;40313;50.308;30.374;2022-09-13T10:07:06;98725.81;;;17.28;100.00
54407;BME280;40313;50.308;30.374;2022-09-13T10:09:38;98725.91;;;17.36;100.00
54407;BME280;40313;50.308;30.374;2022-09-13T10:12:30;98723.03;;;17.30;100.00
54407;BME280;40313;50.308;30.374;2022-09-13T10:15:21;98720.78;;;17.35;100.00
54407;BME280;40313;50.308;30.374;2022-09-13T10:28:17;98741.53;;;17.02;100.00
54407;BME280;40313;50.308;30.374;2022-09-13T10:31:05;98707.50;;;16.45;100.00
54407;BME280;40313;50.308;30.374;2022-09-13T10:33:58;98745.78;;;16.67;100.00
54407;BME280;40313;50.308;30.374;2022-09-13T10:36:46;98744.50;;;16.71;100.00
54407;BME280;40313;50.308;30.374;2022-09-13T10:39:23;98742.84;;;16.70;100.00
54407;BME280;40313;50.308;30.374;2022-09-13T10:42:09;98742.66;;;16.53;100.00
54407;BME280;40313;50.308;30.374;2022-09-13T10:45:11;98748.94;;;16.42;100.00
54407;BME280;40313;50.308;30.374;2022-09-13T10:47:59;98724.31;;;16.34;100.00
54407;BME280;40313;50.308;30.374;2022-09-13T10:51:06;98748.44;;;16.57;100.00
54407;BME280;40313;50.308;30.374;2022-09-13T10:53:48;98735.63;;;16.44;100.00
54407;BME280;40313;50.308;30.374;2022-09-13T10:56:32;98734.56;;;16.37;100.00
54407;BME280;40313;50.308;30.374;2022-09-13T10:59:18;98760.69;;;16.48;100.00
54407;BME280;40313;50.308;30.374;2022-09-13T11:05:21;98743.38;;;16.18;100.00
54407;BME280;40313;50.308;30.374;2022-09-13T11:08:31;98753.94;;;16.08;100.00
54407;BME280;40313;50.308;30.374;2022-09-13T11:11:14;98756.16;;;16.40;100.00
54407;BME280;40313;50.308;30.374;2022-09-13T11:14:03;98757.00;;;16.41;100.00
54407;BME280;40313;50.308;30.374;2022-09-13T16:15:04;98845.63;;;12.00;100.00
54407;BME280;40313;50.308;30.374;2022-09-13T16:17:37;98842.44;;;12.08;100.00
54407;BME280;40313;50.308;30.374;2022-09-13T16:20:12;98838.66;;;12.12;100.00
54407;BME280;40313;50.308;30.374;2022-09-13T16:26:09;98846.84;;;12.07;100.00
54407;BME280;40313;50.308;30.374;2022-09-13T16:28:38;98842.91;;;12.13;100.00
54407;BME280;40313;50.308;30.374;2022-09-13T16:31:33;98849.69;;;12.16;100.00
54407;BME280;40313;50.308;30.374;2022-09-13T16:34:28;98831.19;;;12.30;100.00
54407;BME280;40313;50.308;30.374;2022-09-13T16:37:22;98844.03;;;12.44;100.00
54407;BME280;40313;50.308;30.374;2022-09-13T16:39:56;98839.75;;;12.21;100.00
54407;BME280;40313;50.308;30.374;2022-09-13T16:42:35;98840.13;;;12.27;100.00
54407;BME280;40313;50.308;30.374;2022-09-13T16:45:19;98844.13;;;12.32;100.00
54407;BME280;40313;50.308;30.374;2022-09-13T16:48:10;98848.91;;;12.38;100.00
54407;BME280;40313;50.308;30.374;2022-09-13T16:50:48;98854.97;;;12.38;100.00
54407;BME280;40313;50.308;30.374;2022-09-13T16:53:55;98834.91;;;12.39;100.00
54407;BME280;40313;50.308;30.374;2022-09-13T16:56:55;98849.25;;;12.44;100.00
54407;BME280;40313;50.308;30.374;2022-09-13T16:59:28;98840.59;;;12.44;100.00
54407;BME280;40313;50.308;30.374;2022-09-13T17:02:12;98834.66;;;12.42;100.00
54407;BME280;40313;50.308;30.374;2022-09-13T17:05:01;98845.00;;;12.43;100.00
54407;BME280;40313;50.308;30.374;2022-09-13T17:10:39;98841.09;;;12.60;100.00
54407;BME280;40313;50.308;30.374;2022-09-13T17:13:28;98848.19;;;12.58;100.00
54407;BME280;40313;50.308;30.374;2022-09-13T17:16:06;98841.19;;;12.59;100.00
54407;BME280;40313;50.308;30.374;2022-09-13T17:22:05;98830.13;;;12.55;100.00
54407;BME280;40313;50.308;30.374;2022-09-13T17:24:57;98841.28;;;12.57;100.00
54407;BME280;40313;50.308;30.374;2022-09-13T17:28:06;98843.69;;;12.60;100.00
54407;BME280;40313;50.308;30.374;2022-09-13T17:30:33;98829.63;;;12.50;100.00
54407;BME280;40313;50.308;30.374;2022-09-13T17:33:12;98830.38;;;12.52;100.00
54407;BME280;40313;50.308;30.374;2022-09-13T17:35:43;98832.03;;;12.53;100.00
54407;BME280;40313;50.308;30.374;2022-09-13T17:47:22;98833.94;;;12.51;100.00
54407;BME280;40313;50.308;30.374;2022-09-13T17:50:07;98840.47;;;12.57;100.00
54407;BME280;40313;50.308;30.374;2022-09-13T17:52:37;98842.97;;;12.58;100.00
54407;BME280;40313;50.308;30.374;2022-09-13T17:55:25;98837.72;;;12.47;100.00
54407;BME280;40313;50.308;30.374;2022-09-13T17:58:03;98838.34;;;12.51;100.00
54407;BME280;40313;50.308;30.374;2022-09-13T18:01:11;98835.59;;;12.52;100.00
54407;BME280;40313;50.308;30.374;2022-09-13T18:03:47;98823.94;;;12.45;100.00
54407;BME280;40313;50.308;30.374;2022-09-13T18:06:32;98832.25;;;12.50;100.00
54407;BME280;40313;50.308;30.374;2022-09-13T18:09:00;98831.56;;;12.48;100.00
54407;BME280;40313;50.308;30.374;2022-09-13T18:11:36;98822.03;;;12.47;100.00
54407;BME280;40313;50.308;30.374;2022-09-13T18:14:17;98835.22;;;12.45;100.00
54407;BME280;40313;50.308;30.374;2022-09-13T18:16:48;98830.00;;;12.45;100.00
54407;BME280;40313;50.308;30.374;2022-09-13T18:19:28;98827.50;;;12.44;100.00
54407;BME280;40313;50.308;30.374;2022-09-13T18:22:04;98825.63;;;12.46;100.00
54407;BME280;40313;50.308;30.374;2022-09-13T18:25:05;98827.16;;;12.49;100.00
54407;BME280;40313;50.308;30.374;2022-09-13T18:31:11;98827.75;;;12.52;100.00
54407;BME280;40313;50.308;30.374;2022-09-13T18:34:12;98841.06;;;12.49;100.00
54407;BME280;40313;50.308;30.374;2022-09-13T18:36:51;98835.09;;;12.36;100.00
54407;BME280;40313;50.308;30.374;2022-09-13T18:40:10;98822.75;;;12.26;100.00
54407;BME280;40313;50.308;30.374;2022-09-13T18:43:06;98837.03;;;12.34;100.00
54407;BME280;40313;50.308;30.374;2022-09-13T18:45:37;98834.66;;;12.42;100.00
54407;BME280;40313;50.308;30.374;2022-09-13T18:51:24;98825.38;;;12.49;100.00